INFORMACIÓN METAR y TAF
METAR FOR LELN
ADDS - METARS form results

(0905 UTC 25 August 2019)
Data provider http://aviationweather.gov/metar/data/
 
METAR text: LELN 250900Z 22005KT 170V270 9999 TS VCSH SCT030CB 21/08 Q1020
Conditions at: LELN (LEON/VIRGEN CAMI, ES) observed 0900 UTC 25 August 2019
Temperature: 21.0°C (70°F)
Dewpoint: 8.0°C (46°F) [RH = 43%]
Pressure (altimeter): 30.12 inches Hg (1020.0 mb)
Winds: from the SW (220 degrees) at 6 MPH (5 knots; 2.6 m/s)
Visibility: 6 or more miles (10+ km)
Ceiling: at least 12,000 feet AGL
Clouds: scattered clouds at 3000 feet AGL
Weather: TS VCSH  (thunderstorm, showers in vicinity)

METAR text: LELN 250830Z 05005KT 010V080 9999 SCT040 20/11 Q1019
Conditions at: LELN (LEON/VIRGEN CAMI, ES) observed 0830 UTC 25 August 2019
Temperature: 20.0°C (68°F)
Dewpoint: 11.0°C (52°F) [RH = 56%]
Pressure (altimeter): 30.09 inches Hg (1019.0 mb)
Winds: from the NE (50 degrees) at 6 MPH (5 knots; 2.6 m/s)
Visibility: 6 or more miles (10+ km)
Ceiling: at least 12,000 feet AGL
Clouds: scattered clouds at 4000 feet AGL
Weather: no significant weather observed at this time

Forecast for: LELN (LEON/VIRGEN CAMI, ES)
Text: TAF LELN 250800Z 2509/2518 VRB05KT 9999 FEW040
Forecast period: 0900 to 1800 UTC 25 August 2019
Forecast type: FROM: standard forecast or significant change
Winds: variable direction winds at 6 MPH (5 knots; 2.6 m/s)
Visibility: 6 or more miles 10+ km)
Ceiling: at least 12,000 feet AGL
Clouds: few clouds at 4000 feet AGL
Weather: no significant weather forecast for this period
Text: TEMPO 2509/2518 SHRA FEW035TCU
Forecast period: 0900 to 1800 UTC 25 August 2019
Forecast type: TEMPORARY: The following changes expected for less than half the time period
Visibility: missing
Ceiling: at least 12,000 feet AGL
Clouds: few clouds at 3500 feet AGL
Weather: SHRA  (rain showers)
Text: PROB40
Forecast period: 0900 to 1800 UTC 25 August 2019
Forecast type: TEMPORARY: The following changes expected for less than half the time period
Winds: variable direction winds at 17 MPH (15 knots; 7.7 m/s)
gusting to 29 MPH (25 knots; 12.9 m/s)
Visibility: 1.86 miles (2.99 km)
Ceiling: at least 12,000 feet AGL
Clouds: scattered clouds at 2500 feet AGL
Weather: TS SHRA  (thunderstorm, rain showers)

 MAPA DE AEROPUERTO

 INFORMACIÓN DE PISTA
Pista 05 Longitud 6890 ft Ancho 148 ft
Elevación 2994 ft Umbral desplazado 0 ft Rumbo de pista 45
Pista 23 Longitud 6890 ft Ancho 148 ft
Elevación 3001 ft Umbral desplazado 0 ft Rumbo de pista 225
Pista 06 Longitud 3609 ft Ancho 328 ft
Elevación 3034 ft Umbral desplazado 0 ft Rumbo de pista 60
Pista 24 Longitud 3609 ft Ancho 328 ft
Elevación 3000 ft Umbral desplazado 0 ft Rumbo de pista 240

 FRECUANCIAS DEL AEROPUERTO
Tipo APP Nombre APP Frecuencia 122.1 MHZ
Tipo TWR Nombre TWR Frecuencia 122.1 MHZ

 RADIO AYUDAS DEL AEROPUERTO
Tipo VOR-DME Nombre Leon Frecuencia 112000 KHZ
Tipo NDB Nombre Leon Frecuencia 330 KHZ



Powered by Virtual Airlines Manager [v2.6.2]